sensor_id;sensor_type;location;lat;lon;timestamp;pressure;altitude;pressure_sealevel;temperature;humidity
73297;BME280;61524;50.938;11.396;2022-09-16T00:00:21;98287.75;;;11.69;93.65
73297;BME280;61524;50.938;11.396;2022-09-16T00:02:47;98296.56;;;11.74;93.83
73297;BME280;61524;50.938;11.396;2022-09-16T00:05:12;98298.94;;;11.76;92.80
73297;BME280;61524;50.938;11.396;2022-09-16T00:07:38;98299.25;;;11.64;94.03
73297;BME280;61524;50.938;11.396;2022-09-16T00:10:04;98296.59;;;11.59;94.04
73297;BME280;61524;50.938;11.396;2022-09-16T00:12:30;98302.47;;;11.56;94.29
73297;BME280;61524;50.938;11.396;2022-09-16T00:14:56;98306.50;;;11.53;94.56
73297;BME280;61524;50.938;11.396;2022-09-16T00:17:21;98306.78;;;11.47;95.38
73297;BME280;61524;50.938;11.396;2022-09-16T00:19:47;98298.50;;;11.43;95.39
73297;BME280;61524;50.938;11.396;2022-09-16T00:22:15;98298.22;;;11.40;95.27
73297;BME280;61524;50.938;11.396;2022-09-16T00:24:40;98311.88;;;11.28;95.64
73297;BME280;61524;50.938;11.396;2022-09-16T00:27:06;98309.22;;;11.23;95.77
73297;BME280;61524;50.938;11.396;2022-09-16T00:29:31;98300.66;;;11.21;96.08
73297;BME280;61524;50.938;11.396;2022-09-16T00:31:56;98306.00;;;11.21;95.96
73297;BME280;61524;50.938;11.396;2022-09-16T00:34:24;98312.69;;;11.18;95.92
73297;BME280;61524;50.938;11.396;2022-09-16T00:36:50;98301.19;;;11.13;95.94
73297;BME280;61524;50.938;11.396;2022-09-16T00:39:15;98308.97;;;11.14;95.91
73297;BME280;61524;50.938;11.396;2022-09-16T00:41:40;98295.84;;;11.13;95.69
73297;BME280;61524;50.938;11.396;2022-09-16T00:48:03;98302.25;;;11.07;95.35
73297;BME280;61524;50.938;11.396;2022-09-16T00:50:36;98297.47;;;11.03;95.51
73297;BME280;61524;50.938;11.396;2022-09-16T00:53:08;98306.81;;;11.01;96.05
73297;BME280;61524;50.938;11.396;2022-09-16T00:55:37;98312.72;;;10.98;95.65
73297;BME280;61524;50.938;11.396;2022-09-16T00:58:13;98308.16;;;10.93;95.93
73297;BME280;61524;50.938;11.396;2022-09-16T01:00:42;98299.06;;;10.94;95.25
73297;BME280;61524;50.938;11.396;2022-09-16T01:03:08;98308.41;;;10.92;95.83
73297;BME280;61524;50.938;11.396;2022-09-16T01:05:34;98302.25;;;10.86;96.40
73297;BME280;61524;50.938;11.396;2022-09-16T01:08:01;98296.38;;;10.79;96.55
73297;BME280;61524;50.938;11.396;2022-09-16T01:10:27;98294.50;;;10.74;96.80
73297;BME280;61524;50.938;11.396;2022-09-16T01:12:59;98297.97;;;10.70;97.13
73297;BME280;61524;50.938;11.396;2022-09-16T01:15:28;98303.06;;;10.66;97.45
73297;BME280;61524;50.938;11.396;2022-09-16T01:20:57;98292.06;;;10.58;98.23
73297;BME280;61524;50.938;11.396;2022-09-16T01:24:01;98300.06;;;10.52;98.46
73297;BME280;61524;50.938;11.396;2022-09-16T01:39:58;98294.47;;;10.64;97.61
73297;BME280;61524;50.938;11.396;2022-09-16T01:45:16;98290.50;;;10.72;97.81
73297;BME280;61524;50.938;11.396;2022-09-16T01:47:57;98290.50;;;10.72;97.59
73297;BME280;61524;50.938;11.396;2022-09-16T01:55:47;98293.69;;;10.64;97.76
73297;BME280;61524;50.938;11.396;2022-09-16T01:58:16;98276.34;;;10.61;97.54
73297;BME280;61524;50.938;11.396;2022-09-16T02:00:47;98281.69;;;10.61;97.72
73297;BME280;61524;50.938;11.396;2022-09-16T02:03:33;98276.84;;;10.58;97.51
73297;BME280;61524;50.938;11.396;2022-09-16T02:06:14;98278.19;;;10.61;97.60
73297;BME280;61524;50.938;11.396;2022-09-16T02:08:46;98284.34;;;10.61;97.24
73297;BME280;61524;50.938;11.396;2022-09-16T02:11:16;98279.25;;;10.60;97.47
73297;BME280;61524;50.938;11.396;2022-09-16T02:13:53;98281.66;;;10.56;96.70
73297;BME280;61524;50.938;11.396;2022-09-16T02:16:28;98281.09;;;10.54;95.78
73297;BME280;61524;50.938;11.396;2022-09-16T02:18:58;98272.56;;;10.52;95.60
73297;BME280;61524;50.938;11.396;2022-09-16T02:21:31;98275.53;;;10.56;95.44
73297;BME280;61524;50.938;11.396;2022-09-16T02:24:01;98283.53;;;10.56;94.86
73297;BME280;61524;50.938;11.396;2022-09-16T02:26:36;98273.38;;;10.58;94.88
73297;BME280;61524;50.938;11.396;2022-09-16T02:29:07;98272.28;;;10.54;94.58
73297;BME280;61524;50.938;11.396;2022-09-16T02:31:36;98269.63;;;10.59;93.89
73297;BME280;61524;50.938;11.396;2022-09-16T02:34:07;98273.09;;;10.59;93.85
73297;BME280;61524;50.938;11.396;2022-09-16T02:36:37;98264.56;;;10.47;94.40
73297;BME280;61524;50.938;11.396;2022-09-16T02:39:10;98272.03;;;10.50;94.32
73297;BME280;61524;50.938;11.396;2022-09-16T02:41:39;98273.63;;;10.46;94.83
73297;BME280;61524;50.938;11.396;2022-09-16T02:44:07;98266.13;;;10.43;94.79
73297;BME280;61524;50.938;11.396;2022-09-16T02:49:22;98274.13;;;10.38;94.59
73297;BME280;61524;50.938;11.396;2022-09-16T02:54:32;98280.78;;;10.25;95.97
73297;BME280;61524;50.938;11.396;2022-09-16T02:57:00;98282.34;;;10.21;96.72
73297;BME280;61524;50.938;11.396;2022-09-16T02:59:26;98284.75;;;10.17;96.85
73297;BME280;61524;50.938;11.396;2022-09-16T03:01:51;98287.91;;;10.09;97.60
73297;BME280;61524;50.938;11.396;2022-09-16T03:04:18;98274.25;;;10.00;97.75
73297;BME280;61524;50.938;11.396;2022-09-16T03:06:44;98272.94;;;9.98;98.32
73297;BME280;61524;50.938;11.396;2022-09-16T03:09:12;98274.00;;;9.97;98.26
73297;BME280;61524;50.938;11.396;2022-09-16T03:22:36;98274.50;;;9.89;97.54
73297;BME280;61524;50.938;11.396;2022-09-16T03:27:48;98280.91;;;9.93;96.00
73297;BME280;61524;50.938;11.396;2022-09-16T03:30:15;98283.56;;;9.88;96.31
73297;BME280;61524;50.938;11.396;2022-09-16T03:32:59;98273.44;;;9.85;95.96
73297;BME280;61524;50.938;11.396;2022-09-16T03:35:32;98269.44;;;9.87;94.53
73297;BME280;61524;50.938;11.396;2022-09-16T03:38:00;98278.50;;;9.86;95.46
73297;BME280;61524;50.938;11.396;2022-09-16T03:40:28;98274.22;;;9.80;95.10
73297;BME280;61524;50.938;11.396;2022-09-16T03:42:54;98263.53;;;9.80;94.94
73297;BME280;61524;50.938;11.396;2022-09-16T03:45:22;98269.13;;;9.84;94.12
73297;BME280;61524;50.938;11.396;2022-09-16T03:47:49;98275.28;;;9.89;94.13
73297;BME280;61524;50.938;11.396;2022-09-16T03:50:16;98278.22;;;9.88;93.81
73297;BME280;61524;50.938;11.396;2022-09-16T03:52:42;98271.81;;;9.84;94.95
73297;BME280;61524;50.938;11.396;2022-09-16T03:55:07;98267.25;;;9.79;95.26
73297;BME280;61524;50.938;11.396;2022-09-16T03:57:35;98267.78;;;9.76;96.12
73297;BME280;61524;50.938;11.396;2022-09-16T04:00:02;98276.03;;;9.69;95.63
73297;BME280;61524;50.938;11.396;2022-09-16T04:02:28;98267.22;;;9.69;96.45
73297;BME280;61524;50.938;11.396;2022-09-16T04:04:53;98269.59;;;9.65;96.98
73297;BME280;61524;50.938;11.396;2022-09-16T04:07:19;98279.50;;;9.70;97.30
73297;BME280;61524;50.938;11.396;2022-09-16T04:09:44;98277.34;;;9.72;96.96
73297;BME280;61524;50.938;11.396;2022-09-16T04:12:10;98277.34;;;9.72;97.27
73297;BME280;61524;50.938;11.396;2022-09-16T04:14:35;98272.59;;;9.74;97.72
73297;BME280;61524;50.938;11.396;2022-09-16T04:17:01;98276.31;;;9.78;97.20
73297;BME280;61524;50.938;11.396;2022-09-16T04:19:27;98273.66;;;9.83;98.19
73297;BME280;61524;50.938;11.396;2022-09-16T04:21:52;98281.16;;;9.86;97.66
73297;BME280;61524;50.938;11.396;2022-09-16T04:24:18;98277.72;;;9.91;96.98
73297;BME280;61524;50.938;11.396;2022-09-16T04:26:43;98271.84;;;9.94;96.90
73297;BME280;61524;50.938;11.396;2022-09-16T04:29:09;98273.75;;;9.98;97.85
73297;BME280;61524;50.938;11.396;2022-09-16T04:31:35;98278.28;;;10.03;97.48
73297;BME280;61524;50.938;11.396;2022-09-16T04:34:04;98273.75;;;10.04;97.64
73297;BME280;61524;50.938;11.396;2022-09-16T04:36:30;98279.13;;;10.14;97.31
73297;BME280;61524;50.938;11.396;2022-09-16T04:38:56;98272.72;;;10.15;96.88
73297;BME280;61524;50.938;11.396;2022-09-16T04:41:24;98258.56;;;10.09;96.93
73297;BME280;61524;50.938;11.396;2022-09-16T04:43:51;98275.94;;;10.22;96.33
73297;BME280;61524;50.938;11.396;2022-09-16T04:46:18;98276.25;;;10.25;95.20
73297;BME280;61524;50.938;11.396;2022-09-16T04:48:49;98277.84;;;10.27;96.71
73297;BME280;61524;50.938;11.396;2022-09-16T04:51:16;98275.75;;;10.29;96.67
73297;BME280;61524;50.938;11.396;2022-09-16T04:53:42;98275.97;;;10.27;95.75
73297;BME280;61524;50.938;11.396;2022-09-16T04:56:13;98275.19;;;10.27;95.17
73297;BME280;61524;50.938;11.396;2022-09-16T04:58:52;98269.78;;;10.16;95.97
73297;BME280;61524;50.938;11.396;2022-09-16T05:01:20;98281.81;;;10.14;96.56
73297;BME280;61524;50.938;11.396;2022-09-16T05:03:48;98273.50;;;10.10;96.40
73297;BME280;61524;50.938;11.396;2022-09-16T05:06:20;98276.44;;;10.09;96.94
73297;BME280;61524;50.938;11.396;2022-09-16T05:08:47;98271.38;;;10.07;96.46
73297;BME280;61524;50.938;11.396;2022-09-16T05:11:16;98270.28;;;10.03;96.73
73297;BME280;61524;50.938;11.396;2022-09-16T05:13:41;98265.19;;;9.96;96.30
73297;BME280;61524;50.938;11.396;2022-09-16T05:16:12;98277.44;;;9.92;97.02
73297;BME280;61524;50.938;11.396;2022-09-16T05:18:39;98276.09;;;9.90;97.56
73297;BME280;61524;50.938;11.396;2022-09-16T05:21:07;98275.28;;;9.89;97.83
73297;BME280;61524;50.938;11.396;2022-09-16T05:23:33;98277.16;;;9.89;98.11
73297;BME280;61524;50.938;11.396;2022-09-16T05:26:05;98274.25;;;9.90;98.38
73297;BME280;61524;50.938;11.396;2022-09-16T05:28:32;98274.78;;;9.92;98.21
73297;BME280;61524;50.938;11.396;2022-09-16T05:31:08;98276.38;;;9.93;98.11
73297;BME280;61524;50.938;11.396;2022-09-16T05:33:34;98264.41;;;10.01;97.26
73297;BME280;61524;50.938;11.396;2022-09-16T05:36:07;98270.28;;;10.03;96.47
73297;BME280;61524;50.938;11.396;2022-09-16T05:38:33;98272.41;;;10.06;97.27
73297;BME280;61524;50.938;11.396;2022-09-16T05:41:00;98272.44;;;10.11;96.96
73297;BME280;61524;50.938;11.396;2022-09-16T05:43:26;98271.13;;;10.14;97.87
73297;BME280;61524;50.938;11.396;2022-09-16T05:45:52;98282.91;;;10.23;97.22
73297;BME280;61524;50.938;11.396;2022-09-16T05:48:18;98283.75;;;10.34;96.35
73297;BME280;61524;50.938;11.396;2022-09-16T05:50:52;98286.69;;;10.42;95.27
73297;BME280;61524;50.938;11.396;2022-09-16T05:53:17;98279.78;;;10.46;95.59
73297;BME280;61524;50.938;11.396;2022-09-16T05:56:15;98283.25;;;10.47;95.84
73297;BME280;61524;50.938;11.396;2022-09-16T05:58:38;98287.03;;;10.66;94.82
73297;BME280;61524;50.938;11.396;2022-09-16T06:01:06;98288.91;;;10.66;95.06
73297;BME280;61524;50.938;11.396;2022-09-16T06:03:33;98286.22;;;10.71;94.95
73297;BME280;61524;50.938;11.396;2022-09-16T06:08:37;98279.53;;;10.68;95.43
73297;BME280;61524;50.938;11.396;2022-09-16T06:11:04;98282.22;;;10.73;94.90
73297;BME280;61524;50.938;11.396;2022-09-16T06:13:30;98283.28;;;10.77;94.62
73297;BME280;61524;50.938;11.396;2022-09-16T06:15:56;98270.47;;;10.85;94.36
73297;BME280;61524;50.938;11.396;2022-09-16T06:18:23;98281.69;;;10.92;94.87
73297;BME280;61524;50.938;11.396;2022-09-16T06:20:50;98273.13;;;10.95;94.60
73297;BME280;61524;50.938;11.396;2022-09-16T06:23:16;98277.16;;;10.87;94.78
73297;BME280;61524;50.938;11.396;2022-09-16T06:25:42;98280.63;;;10.93;94.47
73297;BME280;61524;50.938;11.396;2022-09-16T06:28:08;98275.53;;;10.86;94.12
73297;BME280;61524;50.938;11.396;2022-09-16T06:30:38;98278.47;;;10.85;94.22
73297;BME280;61524;50.938;11.396;2022-09-16T06:33:04;98275.28;;;10.83;94.33
73297;BME280;61524;50.938;11.396;2022-09-16T06:35:30;98274.47;;;10.77;94.11
73297;BME280;61524;50.938;11.396;2022-09-16T06:37:56;98276.31;;;10.87;93.24
73297;BME280;61524;50.938;11.396;2022-09-16T06:40:21;98269.38;;;10.96;92.84
73297;BME280;61524;50.938;11.396;2022-09-16T06:42:47;98267.22;;;11.18;92.87
73297;BME280;61524;50.938;11.396;2022-09-16T06:45:12;98258.97;;;11.20;92.70
73297;BME280;61524;50.938;11.396;2022-09-16T06:47:37;98272.03;;;11.37;91.41
73297;BME280;61524;50.938;11.396;2022-09-16T06:50:03;98265.56;;;11.58;90.44
73297;BME280;61524;50.938;11.396;2022-09-16T06:52:30;98256.44;;;11.64;90.35
73297;BME280;61524;50.938;11.396;2022-09-16T06:54:56;98266.09;;;11.60;89.81
73297;BME280;61524;50.938;11.396;2022-09-16T06:57:22;98267.63;;;11.76;89.54
73297;BME280;61524;50.938;11.396;2022-09-16T06:59:50;98262.81;;;11.83;87.69
73297;BME280;61524;50.938;11.396;2022-09-16T07:02:17;98255.84;;;11.88;86.83
73297;BME280;61524;50.938;11.396;2022-09-16T07:04:42;98266.50;;;11.98;86.89
73297;BME280;61524;50.938;11.396;2022-09-16T07:07:08;98267.53;;;12.12;87.11
73297;BME280;61524;50.938;11.396;2022-09-16T07:09:34;98278.50;;;12.11;85.32
73297;BME280;61524;50.938;11.396;2022-09-16T07:11:59;98265.16;;;12.05;84.94
73297;BME280;61524;50.938;11.396;2022-09-16T07:14:26;98271.59;;;11.94;84.52
73297;BME280;61524;50.938;11.396;2022-09-16T07:16:52;98271.59;;;11.94;85.26
73297;BME280;61524;50.938;11.396;2022-09-16T07:19:18;98269.78;;;11.74;85.20
73297;BME280;61524;50.938;11.396;2022-09-16T07:21:43;98276.22;;;11.78;83.51
73297;BME280;61524;50.938;11.396;2022-09-16T07:24:11;98268.38;;;11.97;83.26
73297;BME280;61524;50.938;11.396;2022-09-16T07:26:38;98275.28;;;12.14;83.64
73297;BME280;61524;50.938;11.396;2022-09-16T07:29:05;98269.88;;;12.24;82.19
73297;BME280;61524;50.938;11.396;2022-09-16T07:31:33;98281.34;;;12.29;81.41
73297;BME280;61524;50.938;11.396;2022-09-16T07:34:00;98284.06;;;12.24;81.52
73297;BME280;61524;50.938;11.396;2022-09-16T07:36:28;98287.09;;;12.07;81.55
73297;BME280;61524;50.938;11.396;2022-09-16T07:38:55;98278.72;;;12.19;82.51
73297;BME280;61524;50.938;11.396;2022-09-16T07:41:27;98281.41;;;12.19;82.09
73297;BME280;61524;50.938;11.396;2022-09-16T07:43:54;98292.34;;;12.28;81.49
73297;BME280;61524;50.938;11.396;2022-09-16T07:46:24;98279.03;;;12.57;80.03
73297;BME280;61524;50.938;11.396;2022-09-16T07:48:49;98276.59;;;13.00;79.36
73297;BME280;61524;50.938;11.396;2022-09-16T07:51:18;98285.34;;;13.10;79.43
73297;BME280;61524;50.938;11.396;2022-09-16T07:53:44;98288.19;;;13.29;79.87
73297;BME280;61524;50.938;11.396;2022-09-16T07:56:15;98290.09;;;13.53;79.92
73297;BME280;61524;50.938;11.396;2022-09-16T07:58:42;98282.63;;;13.16;79.25
73297;BME280;61524;50.938;11.396;2022-09-16T08:01:08;98286.03;;;13.26;79.16
73297;BME280;61524;50.938;11.396;2022-09-16T08:03:35;98284.41;;;13.30;78.75
73297;BME280;61524;50.938;11.396;2022-09-16T08:06:09;98294.56;;;13.33;78.70
73297;BME280;61524;50.938;11.396;2022-09-16T08:08:36;98283.34;;;13.26;77.52
73297;BME280;61524;50.938;11.396;2022-09-16T08:11:02;98289.38;;;13.42;77.26
73297;BME280;61524;50.938;11.396;2022-09-16T08:13:30;98286.38;;;13.73;76.52
73297;BME280;61524;50.938;11.396;2022-09-16T08:16:00;98273.81;;;13.68;73.76
73297;BME280;61524;50.938;11.396;2022-09-16T08:18:25;98281.16;;;13.81;73.44
73297;BME280;61524;50.938;11.396;2022-09-16T08:20:51;98285.00;;;13.51;74.56
73297;BME280;61524;50.938;11.396;2022-09-16T08:23:16;98280.59;;;13.60;74.40
73297;BME280;61524;50.938;11.396;2022-09-16T08:25:42;98287.50;;;13.43;76.25
73297;BME280;61524;50.938;11.396;2022-09-16T08:28:12;98283.97;;;13.47;73.83
73297;BME280;61524;50.938;11.396;2022-09-16T08:30:38;98273.03;;;13.68;73.33
73297;BME280;61524;50.938;11.396;2022-09-16T08:33:03;98271.97;;;13.87;72.55
73297;BME280;61524;50.938;11.396;2022-09-16T08:35:28;98281.59;;;14.12;72.54
73297;BME280;61524;50.938;11.396;2022-09-16T08:37:54;98276.84;;;13.85;71.61
73297;BME280;61524;50.938;11.396;2022-09-16T08:40:22;98285.59;;;13.72;72.54
73297;BME280;61524;50.938;11.396;2022-09-16T08:48:59;98290.09;;;14.19;71.00
73297;BME280;61524;50.938;11.396;2022-09-16T08:51:27;98282.28;;;14.23;71.13
73297;BME280;61524;50.938;11.396;2022-09-16T08:54:23;98291.56;;;14.12;69.82
73297;BME280;61524;50.938;11.396;2022-09-16T08:56:52;98295.03;;;14.12;70.95
73297;BME280;61524;50.938;11.396;2022-09-16T08:59:22;98285.03;;;14.18;73.33
73297;BME280;61524;50.938;11.396;2022-09-16T09:01:56;98287.16;;;14.40;70.22
73297;BME280;61524;50.938;11.396;2022-09-16T09:04:22;98286.50;;;14.29;69.32
73297;BME280;61524;50.938;11.396;2022-09-16T09:10:09;98282.81;;;14.01;71.20
73297;BME280;61524;50.938;11.396;2022-09-16T09:15:46;98299.25;;;14.18;70.67
73297;BME280;61524;50.938;11.396;2022-09-16T09:18:30;98288.16;;;14.25;72.06
73297;BME280;61524;50.938;11.396;2022-09-16T09:40:10;98282.22;;;14.04;69.88
73297;BME280;61524;50.938;11.396;2022-09-16T09:42:51;98284.16;;;14.23;69.65
73297;BME280;61524;50.938;11.396;2022-09-16T09:45:34;98286.63;;;14.19;69.09
73297;BME280;61524;50.938;11.396;2022-09-16T09:48:23;98280.56;;;13.89;68.41
73297;BME280;61524;50.938;11.396;2022-09-16T09:50:52;98288.66;;;13.84;69.91
73297;BME280;61524;50.938;11.396;2022-09-16T09:53:25;98280.13;;;14.01;69.91
73297;BME280;61524;50.938;11.396;2022-09-16T09:58:45;98269.72;;;14.18;70.05
73297;BME280;61524;50.938;11.396;2022-09-16T10:01:12;98268.91;;;14.18;70.52
73297;BME280;61524;50.938;11.396;2022-09-16T10:03:40;98267.63;;;13.91;70.97
73297;BME280;61524;50.938;11.396;2022-09-16T10:06:05;98268.41;;;13.73;71.38
73297;BME280;61524;50.938;11.396;2022-09-16T10:08:42;98270.38;;;13.62;72.85
73297;BME280;61524;50.938;11.396;2022-09-16T10:11:20;98277.81;;;13.71;73.66
73297;BME280;61524;50.938;11.396;2022-09-16T10:13:58;98274.91;;;13.67;71.47
73297;BME280;61524;50.938;11.396;2022-09-16T10:16:33;98280.44;;;14.00;70.54
73297;BME280;61524;50.938;11.396;2022-09-16T10:21:24;98260.22;;;14.45;68.57
73297;BME280;61524;50.938;11.396;2022-09-16T10:23:54;98275.19;;;14.70;67.02
73297;BME280;61524;50.938;11.396;2022-09-16T10:26:25;98261.97;;;14.55;67.83
73297;BME280;61524;50.938;11.396;2022-09-16T10:29:14;98259.53;;;14.58;68.52
73297;BME280;61524;50.938;11.396;2022-09-16T10:31:40;98260.28;;;14.78;69.23
73297;BME280;61524;50.938;11.396;2022-09-16T10:34:17;98261.00;;;14.83;68.61
73297;BME280;61524;50.938;11.396;2022-09-16T10:36:45;98254.41;;;15.08;68.93
73297;BME280;61524;50.938;11.396;2022-09-16T10:39:42;98250.28;;;14.64;70.55
73297;BME280;61524;50.938;11.396;2022-09-16T10:42:23;98255.03;;;14.30;71.33
73297;BME280;61524;50.938;11.396;2022-09-16T10:44:50;98267.72;;;14.48;70.90
73297;BME280;61524;50.938;11.396;2022-09-16T10:49:52;98261.28;;;14.25;70.39
73297;BME280;61524;50.938;11.396;2022-09-16T10:52:21;98253.94;;;14.12;71.30
73297;BME280;61524;50.938;11.396;2022-09-16T10:54:48;98254.13;;;14.21;71.48
73297;BME280;61524;50.938;11.396;2022-09-16T10:57:23;98240.84;;;14.48;71.14
73297;BME280;61524;50.938;11.396;2022-09-16T11:00:21;98248.97;;;14.62;69.53
73297;BME280;61524;50.938;11.396;2022-09-16T11:03:06;98250.66;;;14.90;68.40
73297;BME280;61524;50.938;11.396;2022-09-16T11:08:47;98240.66;;;15.10;66.83
73297;BME280;61524;50.938;11.396;2022-09-16T11:14:06;98235.78;;;14.41;68.83
73297;BME280;61524;50.938;11.396;2022-09-16T11:30:18;98224.69;;;14.29;67.83
73297;BME280;61524;50.938;11.396;2022-09-16T11:41:32;98219.84;;;14.50;67.10
73297;BME280;61524;50.938;11.396;2022-09-16T11:57:33;98251.25;;;14.12;72.60
73297;BME280;61524;50.938;11.396;2022-09-16T12:00:13;98267.97;;;13.85;72.00
73297;BME280;61524;50.938;11.396;2022-09-16T12:03:21;98266.41;;;13.31;73.62
73297;BME280;61524;50.938;11.396;2022-09-16T12:05:52;98267.94;;;13.08;76.52
73297;BME280;61524;50.938;11.396;2022-09-16T12:08:26;98258.91;;;12.99;78.86
73297;BME280;61524;50.938;11.396;2022-09-16T12:10:58;98274.28;;;12.88;80.77
73297;BME280;61524;50.938;11.396;2022-09-16T12:16:07;98261.16;;;12.86;81.70
73297;BME280;61524;50.938;11.396;2022-09-16T12:18:51;98255.91;;;13.34;79.61
73297;BME280;61524;50.938;11.396;2022-09-16T12:21:40;98249.25;;;13.56;76.55
73297;BME280;61524;50.938;11.396;2022-09-16T12:26:56;98247.84;;;14.06;74.77
73297;BME280;61524;50.938;11.396;2022-09-16T12:29:40;98225.81;;;13.85;73.10
73297;BME280;61524;50.938;11.396;2022-09-16T12:32:12;98234.06;;;14.13;74.51
73297;BME280;61524;50.938;11.396;2022-09-16T12:37:35;98232.31;;;14.22;74.11
73297;BME280;61524;50.938;11.396;2022-09-16T12:40:03;98212.50;;;14.18;72.30
73297;BME280;61524;50.938;11.396;2022-09-16T12:42:44;98219.25;;;14.34;70.87
73297;BME280;61524;50.938;11.396;2022-09-16T12:50:58;98217.63;;;15.04;70.57
73297;BME280;61524;50.938;11.396;2022-09-16T13:01:56;98199.91;;;15.16;70.75
73297;BME280;61524;50.938;11.396;2022-09-16T13:04:30;98203.88;;;15.05;69.22
73297;BME280;61524;50.938;11.396;2022-09-16T13:06:57;98205.84;;;14.86;68.01
73297;BME280;61524;50.938;11.396;2022-09-16T13:09:31;98217.50;;;14.95;67.76
73297;BME280;61524;50.938;11.396;2022-09-16T13:12:19;98216.88;;;14.84;72.26
73297;BME280;61524;50.938;11.396;2022-09-16T13:14:54;98220.63;;;14.69;74.66
73297;BME280;61524;50.938;11.396;2022-09-16T13:17:37;98221.75;;;14.50;72.35
73297;BME280;61524;50.938;11.396;2022-09-16T13:22:45;98226.34;;;14.06;78.27
73297;BME280;61524;50.938;11.396;2022-09-16T13:25:27;98224.97;;;13.42;79.81
73297;BME280;61524;50.938;11.396;2022-09-16T13:28:20;98228.81;;;13.02;81.06
73297;BME280;61524;50.938;11.396;2022-09-16T13:30:46;98223.84;;;12.90;83.51
73297;BME280;61524;50.938;11.396;2022-09-16T13:35:38;98210.88;;;13.55;84.57
73297;BME280;61524;50.938;11.396;2022-09-16T13:40:38;98197.25;;;13.95;83.44
73297;BME280;61524;50.938;11.396;2022-09-16T13:48:36;98185.47;;;13.90;82.42
73297;BME280;61524;50.938;11.396;2022-09-16T13:51:09;98191.34;;;13.92;84.00
73297;BME280;61524;50.938;11.396;2022-09-16T13:53:46;98192.66;;;13.95;82.41
73297;BME280;61524;50.938;11.396;2022-09-16T14:13:15;98169.88;;;14.11;77.00
73297;BME280;61524;50.938;11.396;2022-09-16T14:15:46;98160.91;;;14.35;76.65
73297;BME280;61524;50.938;11.396;2022-09-16T14:18:16;98165.28;;;14.50;74.15
73297;BME280;61524;50.938;11.396;2022-09-16T14:23:23;98158.31;;;14.30;74.88
73297;BME280;61524;50.938;11.396;2022-09-16T14:25:49;98162.25;;;14.18;74.29
73297;BME280;61524;50.938;11.396;2022-09-16T14:28:27;98152.38;;;14.14;76.45
73297;BME280;61524;50.938;11.396;2022-09-16T14:30:58;98150.13;;;14.02;76.28
73297;BME280;61524;50.938;11.396;2022-09-16T14:35:58;98149.69;;;13.76;79.19
73297;BME280;61524;50.938;11.396;2022-09-16T14:38:37;98153.53;;;13.70;78.33
73297;BME280;61524;50.938;11.396;2022-09-16T14:41:06;98149.75;;;13.71;79.21
73297;BME280;61524;50.938;11.396;2022-09-16T14:43:32;98159.69;;;13.71;78.57
73297;BME280;61524;50.938;11.396;2022-09-16T14:46:01;98155.25;;;13.61;77.48
73297;BME280;61524;50.938;11.396;2022-09-16T14:48:30;98153.72;;;13.55;81.30
73297;BME280;61524;50.938;11.396;2022-09-16T14:50:57;98151.31;;;13.53;77.95
73297;BME280;61524;50.938;11.396;2022-09-16T14:53:31;98156.41;;;13.55;78.17
73297;BME280;61524;50.938;11.396;2022-09-16T14:55:57;98157.34;;;13.64;78.41
73297;BME280;61524;50.938;11.396;2022-09-16T14:58:25;98145.69;;;13.74;78.12
73297;BME280;61524;50.938;11.396;2022-09-16T15:06:04;98150.28;;;13.73;78.00
73297;BME280;61524;50.938;11.396;2022-09-16T15:08:43;98149.53;;;13.68;77.48
73297;BME280;61524;50.938;11.396;2022-09-16T15:11:16;98146.13;;;13.62;75.28
73297;BME280;61524;50.938;11.396;2022-09-16T15:13:44;98150.03;;;13.51;74.68
73297;BME280;61524;50.938;11.396;2022-09-16T15:16:15;98131.75;;;13.53;74.12
73297;BME280;61524;50.938;11.396;2022-09-16T15:18:51;98130.41;;;13.50;75.47
73297;BME280;61524;50.938;11.396;2022-09-16T15:21:21;98142.78;;;13.51;76.83
73297;BME280;61524;50.938;11.396;2022-09-16T15:23:54;98133.09;;;13.50;76.79
73297;BME280;61524;50.938;11.396;2022-09-16T15:26:27;98129.84;;;13.53;76.10
73297;BME280;61524;50.938;11.396;2022-09-16T15:31:46;98128.25;;;13.52;77.39
73297;BME280;61524;50.938;11.396;2022-09-16T15:36:44;98128.56;;;13.51;74.72
73297;BME280;61524;50.938;11.396;2022-09-16T15:44:54;98131.25;;;13.70;72.77
73297;BME280;61524;50.938;11.396;2022-09-16T15:47:28;98133.06;;;13.74;71.49
73297;BME280;61524;50.938;11.396;2022-09-16T15:52:25;98123.91;;;13.75;71.65
73297;BME280;61524;50.938;11.396;2022-09-16T15:55:00;98127.69;;;13.74;72.74
73297;BME280;61524;50.938;11.396;2022-09-16T16:02:38;98119.84;;;13.59;71.74
73297;BME280;61524;50.938;11.396;2022-09-16T16:05:11;98127.59;;;13.60;70.85
73297;BME280;61524;50.938;11.396;2022-09-16T16:07:42;98122.38;;;13.50;71.45
73297;BME280;61524;50.938;11.396;2022-09-16T16:10:26;98116.50;;;13.48;72.25
73297;BME280;61524;50.938;11.396;2022-09-16T16:12:53;98121.38;;;13.46;72.52
73297;BME280;61524;50.938;11.396;2022-09-16T16:15:21;98123.88;;;13.37;73.38
73297;BME280;61524;50.938;11.396;2022-09-16T16:17:48;98113.22;;;13.32;72.70
73297;BME280;61524;50.938;11.396;2022-09-16T16:20:15;98126.38;;;13.29;74.31
73297;BME280;61524;50.938;11.396;2022-09-16T16:22:41;98111.72;;;13.21;74.39
73297;BME280;61524;50.938;11.396;2022-09-16T16:25:08;98120.84;;;13.20;75.66
73297;BME280;61524;50.938;11.396;2022-09-16T16:27:34;98123.28;;;13.17;74.74
73297;BME280;61524;50.938;11.396;2022-09-16T16:29:59;98123.63;;;13.10;75.68
73297;BME280;61524;50.938;11.396;2022-09-16T16:32:25;98134.38;;;13.10;76.01
73297;BME280;61524;50.938;11.396;2022-09-16T16:34:50;98129.78;;;13.10;75.17
73297;BME280;61524;50.938;11.396;2022-09-16T16:37:18;98129.06;;;13.05;76.51